sensor_id;sensor_type;location;lat;lon;timestamp;P1;durP1;ratioP1;P2;durP2;ratioP2
52494;SDS011;38405;53.212;5.660;2023-06-26T00:01:15;13.27;;;10.50;;
52494;SDS011;38405;53.212;5.660;2023-06-26T00:03:41;12.45;;;10.30;;
52494;SDS011;38405;53.212;5.660;2023-06-26T00:06:06;17.10;;;10.20;;
52494;SDS011;38405;53.212;5.660;2023-06-26T00:08:32;12.10;;;10.13;;
52494;SDS011;38405;53.212;5.660;2023-06-26T00:10:58;11.93;;;10.45;;
52494;SDS011;38405;53.212;5.660;2023-06-26T00:13:23;12.20;;;10.35;;
52494;SDS011;38405;53.212;5.660;2023-06-26T00:15:49;13.98;;;11.25;;
52494;SDS011;38405;53.212;5.660;2023-06-26T00:18:16;13.38;;;11.00;;
52494;SDS011;38405;53.212;5.660;2023-06-26T00:20:41;12.32;;;11.02;;
52494;SDS011;38405;53.212;5.660;2023-06-26T00:23:07;17.08;;;11.32;;
52494;SDS011;38405;53.212;5.660;2023-06-26T00:25:33;11.45;;;10.25;;
52494;SDS011;38405;53.212;5.660;2023-06-26T00:27:59;12.70;;;11.40;;
52494;SDS011;38405;53.212;5.660;2023-06-26T00:30:25;12.65;;;11.35;;
52494;SDS011;38405;53.212;5.660;2023-06-26T00:32:50;14.30;;;11.32;;
52494;SDS011;38405;53.212;5.660;2023-06-26T00:35:16;12.25;;;11.02;;
52494;SDS011;38405;53.212;5.660;2023-06-26T00:37:42;12.15;;;11.00;;
52494;SDS011;38405;53.212;5.660;2023-06-26T00:40:08;12.98;;;11.45;;
52494;SDS011;38405;53.212;5.660;2023-06-26T00:42:34;13.93;;;11.55;;
52494;SDS011;38405;53.212;5.660;2023-06-26T00:44:59;12.85;;;11.35;;
52494;SDS011;38405;53.212;5.660;2023-06-26T00:47:25;13.38;;;11.25;;
52494;SDS011;38405;53.212;5.660;2023-06-26T00:49:52;17.23;;;11.40;;
52494;SDS011;38405;53.212;5.660;2023-06-26T00:52:19;13.60;;;11.05;;
52494;SDS011;38405;53.212;5.660;2023-06-26T00:54:45;11.95;;;10.73;;
52494;SDS011;38405;53.212;5.660;2023-06-26T00:57:11;12.75;;;10.85;;
52494;SDS011;38405;53.212;5.660;2023-06-26T00:59:37;17.75;;;11.32;;
52494;SDS011;38405;53.212;5.660;2023-06-26T01:02:03;15.48;;;11.98;;
52494;SDS011;38405;53.212;5.660;2023-06-26T01:04:29;12.32;;;11.13;;
52494;SDS011;38405;53.212;5.660;2023-06-26T01:06:57;13.52;;;11.52;;
52494;SDS011;38405;53.212;5.660;2023-06-26T01:09:24;14.27;;;11.65;;
52494;SDS011;38405;53.212;5.660;2023-06-26T01:11:51;15.27;;;11.40;;
52494;SDS011;38405;53.212;5.660;2023-06-26T01:14:17;12.35;;;11.07;;
52494;SDS011;38405;53.212;5.660;2023-06-26T01:16:43;14.45;;;11.55;;
52494;SDS011;38405;53.212;5.660;2023-06-26T01:19:19;15.05;;;11.73;;
52494;SDS011;38405;53.212;5.660;2023-06-26T01:21:51;11.23;;;10.02;;
52494;SDS011;38405;53.212;5.660;2023-06-26T01:24:23;14.32;;;11.65;;
52494;SDS011;38405;53.212;5.660;2023-06-26T01:26:56;12.52;;;11.23;;
52494;SDS011;38405;53.212;5.660;2023-06-26T01:29:24;18.20;;;11.93;;
52494;SDS011;38405;53.212;5.660;2023-06-26T01:31:50;12.05;;;10.82;;
52494;SDS011;38405;53.212;5.660;2023-06-26T01:34:16;11.73;;;10.60;;
52494;SDS011;38405;53.212;5.660;2023-06-26T01:36:44;18.70;;;10.43;;
52494;SDS011;38405;53.212;5.660;2023-06-26T01:39:12;12.35;;;10.95;;
52494;SDS011;38405;53.212;5.660;2023-06-26T01:41:40;11.75;;;10.55;;
52494;SDS011;38405;53.212;5.660;2023-06-26T01:49:38;15.13;;;10.98;;
52494;SDS011;38405;53.212;5.660;2023-06-26T01:52:27;12.02;;;10.75;;
52494;SDS011;38405;53.212;5.660;2023-06-26T01:57:45;12.15;;;10.95;;
52494;SDS011;38405;53.212;5.660;2023-06-26T02:00:13;16.95;;;11.38;;
52494;SDS011;38405;53.212;5.660;2023-06-26T02:02:43;12.63;;;11.35;;
52494;SDS011;38405;53.212;5.660;2023-06-26T02:05:09;15.48;;;11.32;;
52494;SDS011;38405;53.212;5.660;2023-06-26T02:07:35;14.18;;;11.10;;
52494;SDS011;38405;53.212;5.660;2023-06-26T02:10:01;12.60;;;11.15;;
52494;SDS011;38405;53.212;5.660;2023-06-26T02:12:27;12.00;;;9.68;;
52494;SDS011;38405;53.212;5.660;2023-06-26T02:14:53;9.00;;;8.10;;
52494;SDS011;38405;53.212;5.660;2023-06-26T02:17:19;20.77;;;8.48;;
52494;SDS011;38405;53.212;5.660;2023-06-26T02:19:44;12.35;;;7.05;;
52494;SDS011;38405;53.212;5.660;2023-06-26T02:22:16;9.85;;;6.57;;
52494;SDS011;38405;53.212;5.660;2023-06-26T02:24:42;8.15;;;6.10;;
52494;SDS011;38405;53.212;5.660;2023-06-26T02:27:08;8.73;;;6.78;;
52494;SDS011;38405;53.212;5.660;2023-06-26T02:29:34;13.23;;;6.50;;
52494;SDS011;38405;53.212;5.660;2023-06-26T02:32:00;11.75;;;6.97;;
52494;SDS011;38405;53.212;5.660;2023-06-26T02:34:26;10.52;;;7.40;;
52494;SDS011;38405;53.212;5.660;2023-06-26T02:36:52;11.60;;;8.10;;
52494;SDS011;38405;53.212;5.660;2023-06-26T02:39:20;11.00;;;8.25;;
52494;SDS011;38405;53.212;5.660;2023-06-26T02:41:46;11.25;;;7.82;;
52494;SDS011;38405;53.212;5.660;2023-06-26T02:44:12;11.00;;;7.82;;
52494;SDS011;38405;53.212;5.660;2023-06-26T02:46:38;12.65;;;8.40;;
52494;SDS011;38405;53.212;5.660;2023-06-26T02:49:04;13.63;;;8.57;;
52494;SDS011;38405;53.212;5.660;2023-06-26T02:51:31;15.65;;;9.45;;
52494;SDS011;38405;53.212;5.660;2023-06-26T02:53:58;15.68;;;9.50;;
52494;SDS011;38405;53.212;5.660;2023-06-26T02:56:23;17.83;;;9.57;;
52494;SDS011;38405;53.212;5.660;2023-06-26T02:58:49;14.60;;;9.15;;
52494;SDS011;38405;53.212;5.660;2023-06-26T03:01:15;14.13;;;9.30;;
52494;SDS011;38405;53.212;5.660;2023-06-26T03:03:41;15.40;;;9.02;;
52494;SDS011;38405;53.212;5.660;2023-06-26T03:06:07;23.25;;;9.40;;
52494;SDS011;38405;53.212;5.660;2023-06-26T03:08:36;20.80;;;10.52;;
52494;SDS011;38405;53.212;5.660;2023-06-26T03:11:04;18.65;;;9.25;;
52494;SDS011;38405;53.212;5.660;2023-06-26T03:13:30;19.80;;;8.27;;
52494;SDS011;38405;53.212;5.660;2023-06-26T03:15:56;12.88;;;8.52;;
52494;SDS011;38405;53.212;5.660;2023-06-26T03:18:22;14.18;;;8.30;;
52494;SDS011;38405;53.212;5.660;2023-06-26T03:20:48;14.43;;;8.63;;
52494;SDS011;38405;53.212;5.660;2023-06-26T03:23:13;12.23;;;8.48;;
52494;SDS011;38405;53.212;5.660;2023-06-26T03:25:39;14.18;;;7.88;;
52494;SDS011;38405;53.212;5.660;2023-06-26T03:28:05;13.15;;;8.52;;
52494;SDS011;38405;53.212;5.660;2023-06-26T03:30:30;11.52;;;7.85;;
52494;SDS011;38405;53.212;5.660;2023-06-26T03:32:56;13.95;;;8.57;;
52494;SDS011;38405;53.212;5.660;2023-06-26T03:35:22;14.73;;;8.02;;
52494;SDS011;38405;53.212;5.660;2023-06-26T03:37:48;15.48;;;8.68;;
52494;SDS011;38405;53.212;5.660;2023-06-26T03:40:14;12.57;;;8.40;;
52494;SDS011;38405;53.212;5.660;2023-06-26T03:42:40;14.48;;;8.30;;
52494;SDS011;38405;53.212;5.660;2023-06-26T03:45:06;13.43;;;7.93;;
52494;SDS011;38405;53.212;5.660;2023-06-26T03:47:32;27.27;;;9.10;;
52494;SDS011;38405;53.212;5.660;2023-06-26T03:49:58;17.73;;;9.40;;
52494;SDS011;38405;53.212;5.660;2023-06-26T03:52:24;17.67;;;9.02;;
52494;SDS011;38405;53.212;5.660;2023-06-26T03:54:49;15.10;;;8.55;;
52494;SDS011;38405;53.212;5.660;2023-06-26T03:57:15;18.27;;;9.45;;
52494;SDS011;38405;53.212;5.660;2023-06-26T03:59:40;14.98;;;8.55;;
52494;SDS011;38405;53.212;5.660;2023-06-26T04:02:06;16.17;;;8.93;;
52494;SDS011;38405;53.212;5.660;2023-06-26T04:04:32;17.90;;;8.00;;
52494;SDS011;38405;53.212;5.660;2023-06-26T04:06:58;16.77;;;7.65;;
52494;SDS011;38405;53.212;5.660;2023-06-26T04:09:24;14.02;;;7.25;;
52494;SDS011;38405;53.212;5.660;2023-06-26T04:11:50;14.75;;;6.78;;
52494;SDS011;38405;53.212;5.660;2023-06-26T04:14:16;11.35;;;5.90;;
52494;SDS011;38405;53.212;5.660;2023-06-26T04:16:43;21.77;;;6.15;;
52494;SDS011;38405;53.212;5.660;2023-06-26T04:19:10;10.23;;;4.65;;
52494;SDS011;38405;53.212;5.660;2023-06-26T04:21:36;15.93;;;5.90;;
52494;SDS011;38405;53.212;5.660;2023-06-26T04:24:01;15.27;;;5.30;;
52494;SDS011;38405;53.212;5.660;2023-06-26T04:26:27;13.05;;;5.07;;
52494;SDS011;38405;53.212;5.660;2023-06-26T04:28:54;13.88;;;5.32;;
52494;SDS011;38405;53.212;5.660;2023-06-26T04:31:20;11.65;;;4.38;;
52494;SDS011;38405;53.212;5.660;2023-06-26T04:33:45;12.93;;;4.60;;
52494;SDS011;38405;53.212;5.660;2023-06-26T04:36:15;11.13;;;4.32;;
52494;SDS011;38405;53.212;5.660;2023-06-26T04:38:42;16.27;;;4.22;;
52494;SDS011;38405;53.212;5.660;2023-06-26T04:41:07;17.52;;;5.43;;
52494;SDS011;38405;53.212;5.660;2023-06-26T04:43:33;14.77;;;4.75;;
52494;SDS011;38405;53.212;5.660;2023-06-26T04:45:59;13.32;;;4.45;;
52494;SDS011;38405;53.212;5.660;2023-06-26T04:48:25;14.85;;;4.10;;
52494;SDS011;38405;53.212;5.660;2023-06-26T04:50:53;20.75;;;4.25;;
52494;SDS011;38405;53.212;5.660;2023-06-26T04:53:20;12.05;;;3.97;;
52494;SDS011;38405;53.212;5.660;2023-06-26T04:55:46;11.73;;;3.53;;
52494;SDS011;38405;53.212;5.660;2023-06-26T04:58:12;16.38;;;4.35;;
52494;SDS011;38405;53.212;5.660;2023-06-26T05:00:38;16.08;;;3.72;;
52494;SDS011;38405;53.212;5.660;2023-06-26T05:03:07;18.33;;;3.50;;
52494;SDS011;38405;53.212;5.660;2023-06-26T05:05:33;13.75;;;3.30;;
52494;SDS011;38405;53.212;5.660;2023-06-26T05:08:12;9.70;;;3.25;;
52494;SDS011;38405;53.212;5.660;2023-06-26T05:10:46;9.73;;;3.40;;
52494;SDS011;38405;53.212;5.660;2023-06-26T05:13:13;11.30;;;3.58;;
52494;SDS011;38405;53.212;5.660;2023-06-26T05:15:42;10.40;;;3.40;;
52494;SDS011;38405;53.212;5.660;2023-06-26T05:18:11;10.02;;;3.42;;
52494;SDS011;38405;53.212;5.660;2023-06-26T05:20:37;10.23;;;3.83;;
52494;SDS011;38405;53.212;5.660;2023-06-26T05:23:03;13.45;;;3.17;;
52494;SDS011;38405;53.212;5.660;2023-06-26T05:25:30;9.60;;;2.95;;
52494;SDS011;38405;53.212;5.660;2023-06-26T05:27:57;11.30;;;3.45;;
52494;SDS011;38405;53.212;5.660;2023-06-26T05:30:24;10.68;;;3.20;;
52494;SDS011;38405;53.212;5.660;2023-06-26T05:32:51;6.53;;;3.05;;
52494;SDS011;38405;53.212;5.660;2023-06-26T05:35:17;9.23;;;2.90;;
52494;SDS011;38405;53.212;5.660;2023-06-26T05:37:45;11.77;;;2.58;;
52494;SDS011;38405;53.212;5.660;2023-06-26T05:40:13;8.77;;;3.08;;
52494;SDS011;38405;53.212;5.660;2023-06-26T05:42:39;10.77;;;2.88;;
52494;SDS011;38405;53.212;5.660;2023-06-26T05:45:05;9.13;;;2.80;;
52494;SDS011;38405;53.212;5.660;2023-06-26T05:47:31;8.88;;;3.00;;
52494;SDS011;38405;53.212;5.660;2023-06-26T05:49:57;9.27;;;2.50;;
52494;SDS011;38405;53.212;5.660;2023-06-26T05:52:23;12.13;;;2.80;;
52494;SDS011;38405;53.212;5.660;2023-06-26T05:54:49;9.77;;;3.05;;
52494;SDS011;38405;53.212;5.660;2023-06-26T05:57:15;6.05;;;2.72;;
52494;SDS011;38405;53.212;5.660;2023-06-26T05:59:41;10.40;;;2.97;;
52494;SDS011;38405;53.212;5.660;2023-06-26T06:02:08;14.35;;;3.42;;
52494;SDS011;38405;53.212;5.660;2023-06-26T06:04:34;10.25;;;2.53;;
52494;SDS011;38405;53.212;5.660;2023-06-26T06:07:00;10.20;;;2.72;;
52494;SDS011;38405;53.212;5.660;2023-06-26T06:09:26;17.20;;;2.75;;
52494;SDS011;38405;53.212;5.660;2023-06-26T06:11:51;13.95;;;2.97;;
52494;SDS011;38405;53.212;5.660;2023-06-26T06:14:17;11.32;;;3.03;;
52494;SDS011;38405;53.212;5.660;2023-06-26T06:16:43;13.30;;;3.50;;
52494;SDS011;38405;53.212;5.660;2023-06-26T06:19:08;10.90;;;2.80;;
52494;SDS011;38405;53.212;5.660;2023-06-26T06:21:36;9.57;;;2.92;;
52494;SDS011;38405;53.212;5.660;2023-06-26T06:24:02;7.70;;;2.83;;
52494;SDS011;38405;53.212;5.660;2023-06-26T06:26:28;11.25;;;2.60;;
52494;SDS011;38405;53.212;5.660;2023-06-26T06:28:53;7.13;;;2.30;;
52494;SDS011;38405;53.212;5.660;2023-06-26T06:31:19;6.20;;;2.00;;
52494;SDS011;38405;53.212;5.660;2023-06-26T06:33:45;4.78;;;2.25;;
52494;SDS011;38405;53.212;5.660;2023-06-26T06:36:11;9.35;;;2.30;;
52494;SDS011;38405;53.212;5.660;2023-06-26T06:38:36;4.88;;;1.80;;
52494;SDS011;38405;53.212;5.660;2023-06-26T06:41:02;5.38;;;1.70;;
52494;SDS011;38405;53.212;5.660;2023-06-26T06:43:28;4.28;;;2.05;;
52494;SDS011;38405;53.212;5.660;2023-06-26T06:45:53;4.05;;;2.17;;
52494;SDS011;38405;53.212;5.660;2023-06-26T06:48:19;7.07;;;1.77;;
52494;SDS011;38405;53.212;5.660;2023-06-26T06:50:44;5.22;;;2.30;;
52494;SDS011;38405;53.212;5.660;2023-06-26T06:53:10;5.30;;;2.00;;
52494;SDS011;38405;53.212;5.660;2023-06-26T06:55:36;3.78;;;1.70;;
52494;SDS011;38405;53.212;5.660;2023-06-26T06:58:01;6.00;;;1.98;;
52494;SDS011;38405;53.212;5.660;2023-06-26T07:00:27;3.42;;;1.75;;
52494;SDS011;38405;53.212;5.660;2023-06-26T07:02:53;6.22;;;2.13;;
52494;SDS011;38405;53.212;5.660;2023-06-26T07:05:19;5.22;;;2.10;;
52494;SDS011;38405;53.212;5.660;2023-06-26T07:07:45;4.38;;;1.92;;
52494;SDS011;38405;53.212;5.660;2023-06-26T07:10:11;6.07;;;2.33;;
52494;SDS011;38405;53.212;5.660;2023-06-26T07:12:38;4.82;;;2.38;;
52494;SDS011;38405;53.212;5.660;2023-06-26T07:15:04;6.60;;;1.83;;
52494;SDS011;38405;53.212;5.660;2023-06-26T07:17:31;3.70;;;2.08;;
52494;SDS011;38405;53.212;5.660;2023-06-26T07:19:57;7.95;;;2.60;;
52494;SDS011;38405;53.212;5.660;2023-06-26T07:22:24;5.57;;;2.00;;
52494;SDS011;38405;53.212;5.660;2023-06-26T07:24:49;5.03;;;2.25;;
52494;SDS011;38405;53.212;5.660;2023-06-26T07:27:15;6.78;;;2.20;;
52494;SDS011;38405;53.212;5.660;2023-06-26T07:29:43;9.85;;;2.13;;
52494;SDS011;38405;53.212;5.660;2023-06-26T07:32:09;10.75;;;2.40;;
52494;SDS011;38405;53.212;5.660;2023-06-26T07:34:34;6.07;;;2.20;;
52494;SDS011;38405;53.212;5.660;2023-06-26T07:37:00;4.95;;;2.47;;
52494;SDS011;38405;53.212;5.660;2023-06-26T07:39:26;6.57;;;2.20;;
52494;SDS011;38405;53.212;5.660;2023-06-26T07:41:51;5.80;;;2.38;;
52494;SDS011;38405;53.212;5.660;2023-06-26T07:44:17;6.93;;;2.10;;
52494;SDS011;38405;53.212;5.660;2023-06-26T07:46:43;5.68;;;2.53;;
52494;SDS011;38405;53.212;5.660;2023-06-26T07:49:10;12.43;;;2.40;;
52494;SDS011;38405;53.212;5.660;2023-06-26T07:51:36;13.18;;;2.40;;
52494;SDS011;38405;53.212;5.660;2023-06-26T07:54:02;9.65;;;2.45;;
52494;SDS011;38405;53.212;5.660;2023-06-26T07:56:28;10.80;;;2.75;;
52494;SDS011;38405;53.212;5.660;2023-06-26T07:58:54;5.07;;;2.05;;
52494;SDS011;38405;53.212;5.660;2023-06-26T08:01:19;5.63;;;2.10;;
52494;SDS011;38405;53.212;5.660;2023-06-26T08:03:45;3.33;;;2.00;;
52494;SDS011;38405;53.212;5.660;2023-06-26T08:06:11;6.75;;;2.22;;
52494;SDS011;38405;53.212;5.660;2023-06-26T08:08:36;5.65;;;1.88;;
52494;SDS011;38405;53.212;5.660;2023-06-26T08:11:02;7.03;;;2.40;;
52494;SDS011;38405;53.212;5.660;2023-06-26T08:13:28;8.13;;;2.40;;
52494;SDS011;38405;53.212;5.660;2023-06-26T08:15:53;4.85;;;2.70;;
52494;SDS011;38405;53.212;5.660;2023-06-26T08:18:19;6.32;;;2.67;;
52494;SDS011;38405;53.212;5.660;2023-06-26T08:20:45;7.68;;;2.95;;
52494;SDS011;38405;53.212;5.660;2023-06-26T08:23:11;14.90;;;2.78;;
52494;SDS011;38405;53.212;5.660;2023-06-26T08:25:36;6.20;;;3.10;;
52494;SDS011;38405;53.212;5.660;2023-06-26T08:28:02;7.70;;;2.95;;
52494;SDS011;38405;53.212;5.660;2023-06-26T08:30:28;7.93;;;3.00;;
52494;SDS011;38405;53.212;5.660;2023-06-26T08:32:57;8.07;;;3.25;;
52494;SDS011;38405;53.212;5.660;2023-06-26T08:35:22;7.97;;;2.75;;
52494;SDS011;38405;53.212;5.660;2023-06-26T08:37:48;6.45;;;2.72;;
52494;SDS011;38405;53.212;5.660;2023-06-26T08:40:16;7.10;;;2.60;;
52494;SDS011;38405;53.212;5.660;2023-06-26T08:42:44;5.68;;;2.60;;
52494;SDS011;38405;53.212;5.660;2023-06-26T08:45:10;5.65;;;2.55;;
52494;SDS011;38405;53.212;5.660;2023-06-26T08:47:36;9.57;;;2.58;;
52494;SDS011;38405;53.212;5.660;2023-06-26T08:50:10;3.33;;;2.00;;
52494;SDS011;38405;53.212;5.660;2023-06-26T08:52:49;9.25;;;3.30;;
52494;SDS011;38405;53.212;5.660;2023-06-26T08:55:33;7.88;;;3.00;;
52494;SDS011;38405;53.212;5.660;2023-06-26T08:58:02;6.13;;;2.70;;
52494;SDS011;38405;53.212;5.660;2023-06-26T09:00:29;5.57;;;2.55;;
52494;SDS011;38405;53.212;5.660;2023-06-26T09:02:56;6.00;;;2.75;;
52494;SDS011;38405;53.212;5.660;2023-06-26T09:05:22;6.03;;;2.47;;
52494;SDS011;38405;53.212;5.660;2023-06-26T09:07:57;9.10;;;2.90;;
52494;SDS011;38405;53.212;5.660;2023-06-26T09:10:23;10.55;;;2.60;;
52494;SDS011;38405;53.212;5.660;2023-06-26T09:12:49;6.20;;;2.83;;
52494;SDS011;38405;53.212;5.660;2023-06-26T09:15:15;7.03;;;2.70;;
52494;SDS011;38405;53.212;5.660;2023-06-26T09:17:44;4.63;;;2.47;;
52494;SDS011;38405;53.212;5.660;2023-06-26T09:20:10;5.10;;;2.45;;
52494;SDS011;38405;53.212;5.660;2023-06-26T09:22:40;9.52;;;2.80;;
52494;SDS011;38405;53.212;5.660;2023-06-26T09:25:07;7.35;;;2.60;;
52494;SDS011;38405;53.212;5.660;2023-06-26T09:27:36;7.30;;;2.45;;
52494;SDS011;38405;53.212;5.660;2023-06-26T09:30:03;4.72;;;1.80;;
52494;SDS011;38405;53.212;5.660;2023-06-26T09:32:29;7.43;;;2.17;;
52494;SDS011;38405;53.212;5.660;2023-06-26T09:34:55;5.93;;;2.20;;
52494;SDS011;38405;53.212;5.660;2023-06-26T09:37:21;6.65;;;2.13;;
52494;SDS011;38405;53.212;5.660;2023-06-26T09:39:47;5.15;;;2.35;;
52494;SDS011;38405;53.212;5.660;2023-06-26T09:42:14;11.90;;;2.42;;
52494;SDS011;38405;53.212;5.660;2023-06-26T09:44:43;8.50;;;2.15;;
52494;SDS011;38405;53.212;5.660;2023-06-26T09:47:10;9.48;;;2.20;;
52494;SDS011;38405;53.212;5.660;2023-06-26T09:49:36;6.82;;;1.90;;
52494;SDS011;38405;53.212;5.660;2023-06-26T09:52:01;7.30;;;2.47;;
52494;SDS011;38405;53.212;5.660;2023-06-26T09:54:27;11.07;;;2.05;;
52494;SDS011;38405;53.212;5.660;2023-06-26T09:56:55;8.57;;;2.15;;
52494;SDS011;38405;53.212;5.660;2023-06-26T09:59:32;8.43;;;2.17;;
52494;SDS011;38405;53.212;5.660;2023-06-26T10:01:58;10.02;;;2.35;;
52494;SDS011;38405;53.212;5.660;2023-06-26T10:04:25;6.40;;;1.90;;
52494;SDS011;38405;53.212;5.660;2023-06-26T10:06:51;8.20;;;2.25;;
52494;SDS011;38405;53.212;5.660;2023-06-26T10:09:19;7.88;;;2.05;;
52494;SDS011;38405;53.212;5.660;2023-06-26T10:14:17;5.95;;;1.92;;
52494;SDS011;38405;53.212;5.660;2023-06-26T10:16:46;8.38;;;2.13;;
52494;SDS011;38405;53.212;5.660;2023-06-26T10:19:14;6.43;;;1.88;;
52494;SDS011;38405;53.212;5.660;2023-06-26T10:21:51;6.90;;;1.80;;
52494;SDS011;38405;53.212;5.660;2023-06-26T10:24:18;7.85;;;1.92;;
52494;SDS011;38405;53.212;5.660;2023-06-26T10:26:45;8.35;;;2.05;;
52494;SDS011;38405;53.212;5.660;2023-06-26T10:29:13;4.90;;;1.83;;
52494;SDS011;38405;53.212;5.660;2023-06-26T10:31:42;10.75;;;2.15;;
52494;SDS011;38405;53.212;5.660;2023-06-26T10:34:11;3.20;;;1.50;;
52494;SDS011;38405;53.212;5.660;2023-06-26T10:36:37;6.35;;;2.25;;
52494;SDS011;38405;53.212;5.660;2023-06-26T10:39:04;5.82;;;1.77;;
52494;SDS011;38405;53.212;5.660;2023-06-26T10:41:36;10.20;;;2.30;;
52494;SDS011;38405;53.212;5.660;2023-06-26T10:46:51;7.68;;;2.40;;
52494;SDS011;38405;53.212;5.660;2023-06-26T10:49:19;9.27;;;2.58;;
52494;SDS011;38405;53.212;5.660;2023-06-26T10:51:49;9.07;;;1.92;;
52494;SDS011;38405;53.212;5.660;2023-06-26T10:54:16;9.68;;;2.33;;
52494;SDS011;38405;53.212;5.660;2023-06-26T10:56:44;8.20;;;2.08;;
52494;SDS011;38405;53.212;5.660;2023-06-26T10:59:18;8.10;;;2.22;;
52494;SDS011;38405;53.212;5.660;2023-06-26T11:01:44;12.80;;;2.17;;
52494;SDS011;38405;53.212;5.660;2023-06-26T11:04:13;9.65;;;2.28;;
52494;SDS011;38405;53.212;5.660;2023-06-26T11:06:41;6.97;;;2.33;;
52494;SDS011;38405;53.212;5.660;2023-06-26T11:09:11;7.40;;;2.45;;
52494;SDS011;38405;53.212;5.660;2023-06-26T11:14:21;9.20;;;2.22;;
52494;SDS011;38405;53.212;5.660;2023-06-26T11:16:48;6.72;;;1.90;;
52494;SDS011;38405;53.212;5.660;2023-06-26T11:19:14;8.50;;;2.42;;
52494;SDS011;38405;53.212;5.660;2023-06-26T11:21:41;12.10;;;2.22;;
52494;SDS011;38405;53.212;5.660;2023-06-26T11:24:09;8.55;;;2.22;;
52494;SDS011;38405;53.212;5.660;2023-06-26T11:26:40;8.50;;;2.40;;
52494;SDS011;38405;53.212;5.660;2023-06-26T11:29:06;7.97;;;2.42;;
52494;SDS011;38405;53.212;5.660;2023-06-26T11:31:33;7.65;;;2.17;;
52494;SDS011;38405;53.212;5.660;2023-06-26T11:34:01;9.73;;;2.35;;
52494;SDS011;38405;53.212;5.660;2023-06-26T11:36:29;12.35;;;2.20;;
52494;SDS011;38405;53.212;5.660;2023-06-26T11:39:01;12.57;;;2.65;;
52494;SDS011;38405;53.212;5.660;2023-06-26T11:41:30;8.75;;;2.70;;
52494;SDS011;38405;53.212;5.660;2023-06-26T11:44:03;7.40;;;2.20;;
52494;SDS011;38405;53.212;5.660;2023-06-26T11:46:29;7.10;;;2.15;;
52494;SDS011;38405;53.212;5.660;2023-06-26T11:48:55;6.85;;;2.45;;
52494;SDS011;38405;53.212;5.660;2023-06-26T11:51:21;7.32;;;1.85;;
52494;SDS011;38405;53.212;5.660;2023-06-26T11:53:47;5.97;;;2.22;;
52494;SDS011;38405;53.212;5.660;2023-06-26T11:56:16;5.85;;;2.00;;
52494;SDS011;38405;53.212;5.660;2023-06-26T12:01:41;9.90;;;2.53;;
52494;SDS011;38405;53.212;5.660;2023-06-26T12:04:11;6.47;;;2.22;;
52494;SDS011;38405;53.212;5.660;2023-06-26T12:06:40;5.80;;;2.40;;
52494;SDS011;38405;53.212;5.660;2023-06-26T12:09:08;6.57;;;1.90;;
52494;SDS011;38405;53.212;5.660;2023-06-26T12:11:36;7.55;;;2.33;;
52494;SDS011;38405;53.212;5.660;2023-06-26T12:14:05;6.38;;;1.77;;
52494;SDS011;38405;53.212;5.660;2023-06-26T12:16:31;11.75;;;2.15;;
52494;SDS011;38405;53.212;5.660;2023-06-26T12:18:59;5.57;;;2.10;;
52494;SDS011;38405;53.212;5.660;2023-06-26T12:21:34;7.95;;;2.17;;
52494;SDS011;38405;53.212;5.660;2023-06-26T12:24:17;6.90;;;2.25;;
52494;SDS011;38405;53.212;5.660;2023-06-26T12:26:44;5.93;;;2.28;;
52494;SDS011;38405;53.212;5.660;2023-06-26T12:29:12;6.43;;;1.90;;
52494;SDS011;38405;53.212;5.660;2023-06-26T12:31:48;12.20;;;2.97;;
52494;SDS011;38405;53.212;5.660;2023-06-26T12:34:17;10.20;;;2.20;;
52494;SDS011;38405;53.212;5.660;2023-06-26T12:36:50;6.30;;;2.22;;
52494;SDS011;38405;53.212;5.660;2023-06-26T12:39:17;10.43;;;2.05;;
52494;SDS011;38405;53.212;5.660;2023-06-26T12:41:46;11.50;;;2.22;;
52494;SDS011;38405;53.212;5.660;2023-06-26T12:44:28;8.43;;;2.47;;
52494;SDS011;38405;53.212;5.660;2023-06-26T12:46:59;12.30;;;2.08;;
52494;SDS011;38405;53.212;5.660;2023-06-26T12:49:35;7.95;;;2.25;;
52494;SDS011;38405;53.212;5.660;2023-06-26T12:52:04;6.38;;;1.75;;
52494;SDS011;38405;53.212;5.660;2023-06-26T12:54:32;6.50;;;2.13;;
52494;SDS011;38405;53.212;5.660;2023-06-26T12:56:59;7.53;;;1.80;;
52494;SDS011;38405;53.212;5.660;2023-06-26T12:59:25;6.57;;;2.13;;
52494;SDS011;38405;53.212;5.660;2023-06-26T13:01:51;6.88;;;2.33;;
52494;SDS011;38405;53.212;5.660;2023-06-26T13:04:17;31.33;;;6.68;;
52494;SDS011;38405;53.212;5.660;2023-06-26T13:06:42;12.85;;;2.78;;
52494;SDS011;38405;53.212;5.660;2023-06-26T13:09:08;73.88;;;13.13;;
52494;SDS011;38405;53.212;5.660;2023-06-26T13:11:36;14.68;;;4.05;;
52494;SDS011;38405;53.212;5.660;2023-06-26T13:14:02;12.15;;;2.90;;
52494;SDS011;38405;53.212;5.660;2023-06-26T13:16:29;10.85;;;2.15;;
52494;SDS011;38405;53.212;5.660;2023-06-26T13:18:54;6.50;;;1.80;;
52494;SDS011;38405;53.212;5.660;2023-06-26T13:21:21;8.65;;;1.85;;
52494;SDS011;38405;53.212;5.660;2023-06-26T13:23:47;9.55;;;2.15;;
52494;SDS011;38405;53.212;5.660;2023-06-26T13:26:12;7.05;;;1.92;;
52494;SDS011;38405;53.212;5.660;2023-06-26T13:28:38;5.35;;;1.88;;
52494;SDS011;38405;53.212;5.660;2023-06-26T13:31:04;8.20;;;1.88;;
52494;SDS011;38405;53.212;5.660;2023-06-26T13:33:30;7.63;;;2.15;;
52494;SDS011;38405;53.212;5.660;2023-06-26T13:35:56;7.20;;;2.30;;
52494;SDS011;38405;53.212;5.660;2023-06-26T13:38:22;9.13;;;2.00;;
52494;SDS011;38405;53.212;5.660;2023-06-26T13:40:52;9.07;;;2.45;;
52494;SDS011;38405;53.212;5.660;2023-06-26T13:43:25;5.20;;;1.73;;
52494;SDS011;38405;53.212;5.660;2023-06-26T13:45:51;10.55;;;2.20;;
52494;SDS011;38405;53.212;5.660;2023-06-26T13:48:17;11.55;;;2.25;;
52494;SDS011;38405;53.212;5.660;2023-06-26T13:50:42;5.68;;;1.70;;
52494;SDS011;38405;53.212;5.660;2023-06-26T13:53:08;5.32;;;1.77;;
52494;SDS011;38405;53.212;5.660;2023-06-26T13:55:34;11.85;;;2.75;;
52494;SDS011;38405;53.212;5.660;2023-06-26T13:58:00;13.38;;;2.30;;
52494;SDS011;38405;53.212;5.660;2023-06-26T14:00:30;10.20;;;1.85;;
52494;SDS011;38405;53.212;5.660;2023-06-26T14:02:58;7.90;;;2.00;;
52494;SDS011;38405;53.212;5.660;2023-06-26T14:05:31;9.32;;;1.77;;
52494;SDS011;38405;53.212;5.660;2023-06-26T14:08:02;8.68;;;1.85;;
52494;SDS011;38405;53.212;5.660;2023-06-26T14:10:29;9.38;;;1.60;;
52494;SDS011;38405;53.212;5.660;2023-06-26T14:12:55;8.52;;;1.90;;
52494;SDS011;38405;53.212;5.660;2023-06-26T14:15:21;14.57;;;1.98;;
52494;SDS011;38405;53.212;5.660;2023-06-26T14:17:46;7.78;;;1.95;;
52494;SDS011;38405;53.212;5.660;2023-06-26T14:20:16;6.50;;;2.30;;
52494;SDS011;38405;53.212;5.660;2023-06-26T14:22:42;7.32;;;2.22;;
52494;SDS011;38405;53.212;5.660;2023-06-26T14:25:09;11.45;;;2.15;;
52494;SDS011;38405;53.212;5.660;2023-06-26T14:27:35;6.18;;;1.70;;
52494;SDS011;38405;53.212;5.660;2023-06-26T14:30:02;10.43;;;2.33;;
52494;SDS011;38405;53.212;5.660;2023-06-26T14:32:32;11.38;;;2.28;;
52494;SDS011;38405;53.212;5.660;2023-06-26T14:34:58;11.50;;;2.28;;
52494;SDS011;38405;53.212;5.660;2023-06-26T14:37:25;10.40;;;2.33;;
52494;SDS011;38405;53.212;5.660;2023-06-26T14:39:51;9.43;;;2.38;;
52494;SDS011;38405;53.212;5.660;2023-06-26T14:42:17;7.13;;;1.90;;
52494;SDS011;38405;53.212;5.660;2023-06-26T14:44:42;5.10;;;1.40;;
52494;SDS011;38405;53.212;5.660;2023-06-26T14:47:11;4.00;;;1.65;;
52494;SDS011;38405;53.212;5.660;2023-06-26T14:49:37;9.95;;;2.20;;
52494;SDS011;38405;53.212;5.660;2023-06-26T14:52:03;11.70;;;2.40;;
52494;SDS011;38405;53.212;5.660;2023-06-26T14:54:29;8.98;;;1.60;;
52494;SDS011;38405;53.212;5.660;2023-06-26T14:56:55;7.38;;;2.15;;